Antonina do Norte, Brazil
Current Conditions -  °F | °C
As of 1:00 PM on Saturday 20 Dec 2014 (Local Time) from SBJU Reporting Station
Scattered Clouds Scattered Clouds  
Wind Chill: 90°   Ceiling: Unl
Heat Index: 93°   Visibility: 6mi
Dew Point: 68°   Wind: 7mph
Humidity: 49%   Direction: 120°ESE
Pressure: 30"   Gusts: NA
Location:  6.78°S, 39.99°W
Report Text: SBJU 201600Z 12006KT 9999 SCT022 32/20 Q1016
Loading
Personal Weather Stations






























Interactive Weather Map New forecast layout! Learn more

10-Day Weather Forecast

Advertisements
Track Severe Weather on mobile